createdAt,value
2019-04-28T00:01:16.339Z,87.62
2019-04-28T00:03:46.832Z,87.18
2019-04-28T00:06:17.314Z,85.76
2019-04-28T00:08:47.717Z,85.10
2019-04-28T00:11:18.203Z,85.90
2019-04-28T00:13:48.648Z,85.81
2019-04-28T00:16:20.978Z,83.91
2019-04-28T00:18:51.713Z,83.88
2019-04-28T00:21:34.481Z,84.40
2019-04-28T00:24:28.614Z,83.92
2019-04-28T00:27:01.851Z,85.40
2019-04-28T00:29:40.772Z,85.44
2019-04-28T00:32:04.894Z,86.14
2019-04-28T00:34:35.805Z,83.89
2019-04-28T00:37:16.610Z,85.46
2019-04-28T00:39:47.122Z,85.13
2019-04-28T00:42:17.805Z,85.75
2019-04-28T00:44:48.195Z,85.42
2019-04-28T00:47:18.696Z,85.13
2019-04-28T00:49:49.137Z,85.40
2019-04-28T00:52:22.229Z,84.02
2019-04-28T00:54:52.932Z,85.86
2019-04-28T00:57:23.474Z,85.74
2019-04-28T00:59:58.259Z,84.93
2019-04-28T01:02:42.662Z,84.11
2019-04-28T01:05:14.984Z,84.70
2019-04-28T01:07:45.463Z,85.29
2019-04-28T01:10:16.295Z,84.69
2019-04-28T01:12:46.952Z,84.81
2019-04-28T01:15:27.274Z,85.29
2019-04-28T01:18:04.621Z,86.03
2019-04-28T01:20:35.102Z,85.75
2019-04-28T01:23:05.525Z,85.38
2019-04-28T01:25:35.946Z,84.63
2019-04-28T01:28:06.405Z,84.54
2019-04-28T01:31:04.955Z,85.34
2019-04-28T01:33:57.550Z,85.04
2019-04-28T01:36:27.950Z,85.27
2019-04-28T01:38:59.900Z,85.07
2019-04-28T01:41:30.623Z,86.22
2019-04-28T01:44:01.016Z,85.70
2019-04-28T01:46:31.685Z,86.24
2019-04-28T01:49:02.281Z,85.01
2019-04-28T01:51:32.837Z,85.04
2019-04-28T01:54:03.524Z,84.02
2019-04-28T01:56:34.148Z,83.86
2019-04-28T01:59:04.895Z,85.14
2019-04-28T02:01:35.531Z,84.47
2019-04-28T02:04:06.431Z,84.01
2019-04-28T02:06:37.180Z,84.02
2019-04-28T02:09:10.583Z,85.90
2019-04-28T02:11:41.354Z,84.89
2019-04-28T02:14:11.709Z,83.90
2019-04-28T02:16:42.170Z,84.90
2019-04-28T02:19:12.575Z,86.79
2019-04-28T02:22:07.357Z,85.63
2019-04-28T02:24:37.852Z,86.84
2019-04-28T02:27:10.407Z,85.92
2019-04-28T02:29:41.750Z,87.41
2019-04-28T02:32:13.203Z,85.30
2019-04-28T02:34:43.766Z,87.11
2019-04-28T02:37:14.229Z,86.02
2019-04-28T02:39:44.673Z,85.62
2019-04-28T02:42:15.188Z,86.34
2019-04-28T02:44:45.543Z,86.16
2019-04-28T02:47:15.896Z,85.90
2019-04-28T02:50:11.351Z,85.44
2019-04-28T02:53:02.620Z,86.24
2019-04-28T02:55:33.474Z,85.24
2019-04-28T02:58:03.917Z,86.03
2019-04-28T03:00:34.435Z,85.62
2019-04-28T03:03:04.859Z,85.22
2019-04-28T03:05:35.288Z,85.27
2019-04-28T03:08:05.834Z,85.83
2019-04-28T03:10:36.348Z,86.25
2019-04-28T03:13:06.870Z,87.00
2019-04-28T03:15:37.289Z,87.43
2019-04-28T03:18:07.771Z,88.40
2019-04-28T03:20:38.154Z,88.44
2019-04-28T03:23:11.554Z,86.54
2019-04-28T03:26:01.456Z,86.41
2019-04-28T03:28:45.071Z,87.62
2019-04-28T03:32:01.079Z,85.42
2019-04-28T03:34:05.661Z,85.73
2019-04-28T03:36:36.091Z,86.11
2019-04-28T03:39:10.862Z,86.20
2019-04-28T03:41:40.664Z,86.00
2019-04-28T03:44:11.575Z,85.67
2019-04-28T03:46:51.179Z,86.68
2019-04-28T03:49:35.065Z,85.88
2019-04-28T03:52:06.924Z,87.51
2019-04-28T03:54:37.356Z,87.18
2019-04-28T03:57:07.778Z,86.98
2019-04-28T03:59:41.330Z,86.64
2019-04-28T04:02:11.364Z,86.22
2019-04-28T04:04:42.047Z,86.76
2019-04-28T04:07:12.493Z,86.84
2019-04-28T04:09:52.935Z,86.90
2019-04-28T04:12:41.196Z,86.11
2019-04-28T04:15:30.913Z,86.43
2019-04-28T04:18:14.253Z,86.76
2019-04-28T04:20:44.756Z,86.51
2019-04-28T04:23:15.197Z,86.51
2019-04-28T04:25:45.629Z,86.57
2019-04-28T04:28:16.137Z,86.05
2019-04-28T04:30:46.418Z,86.18
2019-04-28T04:33:16.858Z,85.50
2019-04-28T04:35:47.274Z,85.13
2019-04-28T04:38:17.608Z,85.08
2019-04-28T04:40:48.065Z,85.89
2019-04-28T04:43:23.031Z,85.21
2019-04-28T04:45:54.006Z,84.30
2019-04-28T04:48:24.446Z,84.22
2019-04-28T04:50:54.757Z,85.10
2019-04-28T04:53:25.233Z,84.22
2019-04-28T04:55:55.645Z,83.49
2019-04-28T04:58:25.966Z,83.73
2019-04-28T05:01:05.021Z,83.46
2019-04-28T05:03:39.402Z,83.18
2019-04-28T05:06:29.835Z,83.82
2019-04-28T05:09:00.320Z,83.67
2019-04-28T05:11:30.769Z,83.76
2019-04-28T05:14:01.191Z,83.28
2019-04-28T05:16:31.724Z,83.67
2019-04-28T05:19:02.242Z,84.01
2019-04-28T05:21:33.458Z,82.61
2019-04-28T05:24:17.470Z,81.72
2019-04-28T05:26:49.625Z,81.50
2019-04-28T05:29:26.487Z,81.86
2019-04-28T05:31:54.924Z,81.67
2019-04-28T05:34:25.078Z,79.79
2019-04-28T05:36:55.418Z,79.65
2019-04-28T05:39:25.824Z,79.57
2019-04-28T05:41:56.287Z,79.93
2019-04-28T05:44:26.751Z,79.54
2019-04-28T05:46:57.193Z,78.40
2019-04-28T05:49:49.605Z,77.64
2019-04-28T05:52:40.188Z,77.74
2019-04-28T05:55:16.303Z,76.92
2019-04-28T05:57:55.611Z,76.61
2019-04-28T06:00:49.780Z,75.73
2019-04-28T06:03:20.767Z,76.43
2019-04-28T06:05:51.187Z,76.72
2019-04-28T06:08:52.421Z,77.08
2019-04-28T06:11:33.373Z,76.83
2019-04-28T06:14:03.791Z,73.19
2019-04-28T06:16:34.225Z,72.29
2019-04-28T06:19:04.699Z,74.19
2019-04-28T06:21:35.096Z,72.83
2019-04-28T06:24:05.528Z,72.99
2019-04-28T06:26:36.030Z,73.61
2019-04-28T06:29:06.631Z,74.65
2019-04-28T06:31:37.062Z,74.24
2019-04-28T06:34:07.477Z,72.91
2019-04-28T06:36:37.947Z,70.63
2019-04-28T06:39:09.848Z,70.21
2019-04-28T06:41:40.211Z,70.67
2019-04-28T06:44:10.644Z,69.28
2019-04-28T06:46:41.097Z,70.60
2019-04-28T06:49:11.432Z,69.98
2019-04-28T06:51:41.902Z,68.63
2019-04-28T06:54:12.366Z,69.53
2019-04-28T06:56:42.864Z,69.41
2019-04-28T06:59:13.183Z,69.39
2019-04-28T07:01:43.585Z,67.03
2019-04-28T07:04:14.055Z,66.31
2019-04-28T07:06:44.439Z,68.13
2019-04-28T07:09:14.864Z,65.51
2019-04-28T07:11:45.278Z,62.60
2019-04-28T07:14:15.704Z,62.28
2019-04-28T07:16:46.147Z,62.13
2019-04-28T07:19:16.503Z,60.77
2019-04-28T07:21:53.199Z,62.92
2019-04-28T07:24:23.622Z,63.28
2019-04-28T07:26:54.071Z,62.62
2019-04-28T07:29:24.483Z,61.44
2019-04-28T07:31:54.976Z,61.46
2019-04-28T07:34:25.437Z,63.27
2019-04-28T07:36:55.931Z,63.02
2019-04-28T07:39:26.401Z,61.93
2019-04-28T07:41:56.839Z,60.03
2019-04-28T07:44:27.268Z,59.27
2019-04-28T07:46:57.791Z,58.26
2019-04-28T07:49:28.055Z,59.57
2019-04-28T07:52:23.589Z,58.73
2019-04-28T07:54:54.185Z,56.88
2019-04-28T07:57:25.016Z,58.73
2019-04-28T07:59:55.447Z,59.25
2019-04-28T08:02:25.764Z,59.97
2019-04-28T08:04:56.213Z,58.27
2019-04-28T08:07:26.640Z,55.53
2019-04-28T08:09:57.149Z,52.28
2019-04-28T08:12:27.598Z,53.77
2019-04-28T08:14:58.408Z,49.74
2019-04-28T08:17:28.909Z,46.76
2019-04-28T08:19:59.256Z,46.54
2019-04-28T08:22:29.697Z,42.06
2019-04-28T08:25:00.136Z,42.02
2019-04-28T08:27:30.575Z,42.94
2019-04-28T08:30:00.956Z,39.46
2019-04-28T08:32:56.373Z,37.92
2019-04-28T08:35:26.869Z,38.76
2019-04-28T08:37:57.414Z,37.70
2019-04-28T08:40:27.827Z,37.45
2019-04-28T08:42:58.255Z,36.79
2019-04-28T08:45:30.699Z,33.80
2019-04-28T08:48:01.199Z,34.07
2019-04-28T08:50:31.593Z,33.14
2019-04-28T08:53:02.225Z,31.70
2019-04-28T08:55:32.724Z,33.92
2019-04-28T08:58:03.193Z,33.16
2019-04-28T09:00:33.588Z,33.84
2019-04-28T09:03:04.121Z,30.89
2019-04-28T09:05:34.608Z,31.84
2019-04-28T09:08:06.840Z,30.95
2019-04-28T09:10:37.370Z,33.33
2019-04-28T09:13:08.004Z,33.68
2019-04-28T09:15:38.795Z,34.39
2019-04-28T09:18:09.287Z,36.79
2019-04-28T09:20:39.736Z,35.29
2019-04-28T09:23:10.271Z,37.35
2019-04-28T09:25:40.680Z,36.39
2019-04-28T09:28:11.223Z,34.63
2019-04-28T09:30:42.053Z,35.23
2019-04-28T09:33:12.470Z,32.49
2019-04-28T09:35:42.919Z,34.22
2019-04-28T09:38:13.502Z,36.59
2019-04-28T09:40:43.927Z,37.44
2019-04-28T09:43:33.254Z,38.27
2019-04-28T09:46:11.193Z,36.01
2019-04-28T09:48:41.829Z,31.69
2019-04-28T09:51:12.194Z,27.48
2019-04-28T09:53:42.809Z,26.83
2019-04-28T09:56:13.343Z,26.18
2019-04-28T09:58:43.790Z,28.04
2019-04-28T10:01:14.262Z,25.61
2019-04-28T10:03:44.691Z,24.17
2019-04-28T10:06:15.167Z,24.39
2019-04-28T10:08:45.696Z,25.24
2019-04-28T10:11:30.075Z,26.33
2019-04-28T10:13:51.197Z,26.75
2019-04-28T10:16:23.435Z,27.19
2019-04-28T10:18:53.873Z,27.33
2019-04-28T10:21:24.367Z,27.30
2019-04-28T10:23:54.852Z,26.74
2019-04-28T10:26:25.331Z,29.31
2019-04-28T10:28:55.748Z,29.46
2019-04-28T10:31:26.169Z,29.67
2019-04-28T10:33:59.936Z,30.16
2019-04-28T10:36:33.555Z,29.64
2019-04-28T10:39:26.894Z,29.14
2019-04-28T10:42:05.922Z,31.38
2019-04-28T10:44:39.935Z,33.31
2019-04-28T10:47:11.367Z,33.13
2019-04-28T10:49:41.797Z,34.66
2019-04-28T10:52:12.529Z,35.84
2019-04-28T10:54:43.035Z,35.04
2019-04-28T10:57:13.612Z,35.91
2019-04-28T10:59:44.060Z,36.56
2019-04-28T11:02:14.580Z,37.71
2019-04-28T11:05:08.285Z,37.50
2019-04-28T11:07:32.168Z,36.20
2019-04-28T11:10:21.311Z,37.74
2019-04-28T11:12:51.987Z,35.14
2019-04-28T11:15:29.965Z,35.29
2019-04-28T11:18:02.133Z,31.45
2019-04-28T11:20:33.421Z,30.49
2019-04-28T11:23:03.907Z,29.15
2019-04-28T11:25:34.366Z,27.45
2019-04-28T11:28:05.067Z,25.96
2019-04-28T11:30:35.493Z,26.18
2019-04-28T11:33:24.793Z,25.52
2019-04-28T11:35:55.539Z,25.63
2019-04-28T11:38:26.006Z,25.18
2019-04-28T11:40:56.487Z,28.66
2019-04-28T11:43:27.019Z,30.62
2019-04-28T11:45:57.575Z,33.02
2019-04-28T11:48:28.126Z,34.13
2019-04-28T11:50:58.450Z,34.64
2019-04-28T11:53:28.934Z,36.28
2019-04-28T11:55:59.423Z,37.06
2019-04-28T11:58:29.750Z,36.75
2019-04-28T12:01:00.232Z,37.39
2019-04-28T12:03:32.088Z,36.34
2019-04-28T12:06:03.213Z,34.32
2019-04-28T12:08:33.635Z,33.68
2019-04-28T12:11:12.533Z,34.44
2019-04-28T12:14:03.137Z,33.70
2019-04-28T12:16:58.601Z,33.29
2019-04-28T12:19:40.042Z,32.28
2019-04-28T12:22:10.636Z,31.52
2019-04-28T12:24:40.998Z,30.29
2019-04-28T12:27:11.484Z,31.03
2019-04-28T12:29:41.969Z,31.69
2019-04-28T12:32:12.483Z,31.80
2019-04-28T12:34:42.968Z,33.76
2019-04-28T12:37:13.477Z,32.86
2019-04-28T12:39:43.888Z,31.19
2019-04-28T12:42:14.256Z,31.48
2019-04-28T12:44:44.851Z,29.39
2019-04-28T12:47:15.294Z,28.42
2019-04-28T12:49:52.240Z,24.87
2019-04-28T12:52:22.663Z,24.89
2019-04-28T12:54:53.104Z,24.68
2019-04-28T12:57:23.532Z,27.21
2019-04-28T13:00:03.085Z,27.89
2019-04-28T13:03:01.706Z,27.05
2019-04-28T13:05:34.588Z,26.12
2019-04-28T13:08:05.067Z,27.76
2019-04-28T13:10:35.553Z,29.01
2019-04-28T13:13:06.118Z,30.74
2019-04-28T13:15:36.635Z,32.41
2019-04-28T13:18:07.185Z,32.75
2019-04-28T13:20:37.611Z,31.48
2019-04-28T13:23:08.048Z,30.98
2019-04-28T13:25:38.509Z,31.45
2019-04-28T13:28:08.999Z,31.28
2019-04-28T13:30:39.435Z,32.16
2019-04-28T13:33:09.860Z,31.65
2019-04-28T13:35:40.254Z,32.50
2019-04-28T13:38:10.839Z,33.13
2019-04-28T13:40:43.522Z,34.42
2019-04-28T13:43:13.949Z,33.81
2019-04-28T13:45:44.781Z,33.34
2019-04-28T13:48:15.306Z,31.60
2019-04-28T13:50:48.684Z,32.57
2019-04-28T13:53:17.957Z,31.52
2019-04-28T13:56:07.307Z,30.94
2019-04-28T13:58:59.512Z,30.64
2019-04-28T14:01:48.869Z,30.56
2019-04-28T14:04:50.752Z,31.94
2019-04-28T14:07:21.177Z,30.75
2019-04-28T14:09:51.570Z,30.90
2019-04-28T14:12:21.915Z,33.18
2019-04-28T14:14:52.424Z,32.77
2019-04-28T14:17:22.815Z,33.01
2019-04-28T14:19:53.478Z,33.66
2019-04-28T14:22:25.782Z,33.07
2019-04-28T14:24:56.282Z,32.97
2019-04-28T14:27:26.754Z,31.62
2019-04-28T14:29:57.201Z,30.35
2019-04-28T14:32:27.780Z,29.64
2019-04-28T14:34:58.150Z,31.62
2019-04-28T14:37:28.664Z,31.14
2019-04-28T14:39:59.129Z,30.31
2019-04-28T14:42:29.562Z,29.80
2019-04-28T14:45:00.068Z,30.83
2019-04-28T14:47:30.617Z,30.61
2019-04-28T14:50:02.745Z,30.11
2019-04-28T14:52:33.177Z,29.58
2019-04-28T14:55:03.762Z,31.02
2019-04-28T14:57:34.268Z,30.31
2019-04-28T15:00:05.547Z,30.38
2019-04-28T15:02:48.723Z,29.18
2019-04-28T15:05:39.072Z,30.16
2019-04-28T15:08:26.739Z,28.11
2019-04-28T15:11:02.271Z,28.34
2019-04-28T15:13:32.672Z,28.25
2019-04-28T15:16:03.504Z,27.58
2019-04-28T15:18:33.880Z,26.38
2019-04-28T15:21:04.298Z,27.72
2019-04-28T15:23:34.811Z,27.96
2019-04-28T15:26:05.239Z,28.01
2019-04-28T15:28:35.820Z,28.22
2019-04-28T15:31:06.323Z,28.80
2019-04-28T15:33:36.763Z,29.58
2019-04-28T15:36:07.223Z,28.97
2019-04-28T15:38:37.667Z,29.97
2019-04-28T15:41:20.958Z,29.42
2019-04-28T15:43:40.293Z,27.49
2019-04-28T15:46:10.755Z,27.07
2019-04-28T15:48:41.183Z,26.84
2019-04-28T15:51:11.716Z,29.27
2019-04-28T15:53:43.786Z,30.09
2019-04-28T15:56:37.552Z,29.45
2019-04-28T15:59:11.384Z,28.45
2019-04-28T16:01:42.077Z,29.43
2019-04-28T16:04:12.438Z,29.92
2019-04-28T16:06:42.847Z,31.35
2019-04-28T16:09:13.544Z,31.61
2019-04-28T16:11:44.751Z,33.26
2019-04-28T16:14:15.258Z,33.54
2019-04-28T16:16:45.837Z,33.72
2019-04-28T16:19:16.266Z,34.82
2019-04-28T16:21:46.719Z,35.31
2019-04-28T16:24:18.104Z,37.00
2019-04-28T16:26:48.586Z,38.13
2019-04-28T16:29:19.231Z,38.11
2019-04-28T16:31:49.847Z,37.18
2019-04-28T16:34:20.295Z,37.54
2019-04-28T16:36:50.715Z,37.57
2019-04-28T16:39:21.794Z,37.46
2019-04-28T16:41:56.519Z,35.60
2019-04-28T16:44:34.500Z,33.51
2019-04-28T16:47:05.230Z,32.15
2019-04-28T16:49:35.897Z,31.32
2019-04-28T16:52:06.921Z,30.82
2019-04-28T16:54:37.338Z,28.89
2019-04-28T16:57:32.403Z,27.97
2019-04-28T17:00:34.946Z,27.40
2019-04-28T17:03:05.685Z,29.65
2019-04-28T17:05:36.285Z,31.12
2019-04-28T17:08:07.022Z,31.01
2019-04-28T17:10:37.573Z,32.68
2019-04-28T17:13:14.117Z,32.50
2019-04-28T17:15:55.603Z,32.93
2019-04-28T17:18:29.993Z,32.48
2019-04-28T17:21:00.418Z,34.31
2019-04-28T17:23:42.290Z,36.31
2019-04-28T17:26:13.004Z,36.51
2019-04-28T17:28:43.353Z,35.68
2019-04-28T17:31:13.972Z,35.23
2019-04-28T17:33:45.558Z,36.40
2019-04-28T17:36:16.112Z,38.00
2019-04-28T17:38:46.597Z,38.79
2019-04-28T17:41:17.267Z,39.20
2019-04-28T17:43:47.678Z,39.53
2019-04-28T17:46:20.454Z,40.65
2019-04-28T17:48:55.834Z,40.48
2019-04-28T17:51:33.559Z,42.93
2019-04-28T17:54:04.072Z,42.71
2019-04-28T17:56:34.611Z,42.67
2019-04-28T17:59:05.635Z,43.11
2019-04-28T18:01:53.559Z,43.06
2019-04-28T18:04:44.425Z,41.78
2019-04-28T18:07:19.192Z,45.80
2019-04-28T18:09:49.511Z,44.21
2019-04-28T18:12:20.169Z,43.39
2019-04-28T18:14:52.308Z,44.83
2019-04-28T18:18:00.499Z,44.93
2019-04-28T18:20:31.067Z,48.00
2019-04-28T18:23:01.577Z,47.09
2019-04-28T18:25:31.971Z,46.86
2019-04-28T18:28:04.248Z,47.53
2019-04-28T18:30:37.622Z,48.73
2019-04-28T18:33:25.908Z,49.55
2019-04-28T18:36:02.577Z,48.63
2019-04-28T18:38:54.931Z,48.81
2019-04-28T18:41:43.481Z,48.84
2019-04-28T18:44:19.733Z,50.02
2019-04-28T18:46:50.312Z,50.11
2019-04-28T18:49:20.909Z,51.21
2019-04-28T18:51:51.618Z,50.29
2019-04-28T18:54:22.193Z,50.91
2019-04-28T18:56:54.556Z,50.16
2019-04-28T18:59:25.136Z,50.25
2019-04-28T19:02:17.381Z,51.38
2019-04-28T19:04:49.501Z,51.09
2019-04-28T19:07:35.116Z,52.83
2019-04-28T19:10:12.151Z,53.84
2019-04-28T19:13:05.108Z,53.79
2019-04-28T19:15:53.251Z,53.99
2019-04-28T19:18:28.688Z,54.02
2019-04-28T19:21:00.212Z,54.09
2019-04-28T19:23:30.791Z,52.75
2019-04-28T19:26:01.320Z,52.56
2019-04-28T19:28:31.833Z,54.50
2019-04-28T19:31:02.337Z,53.90
2019-04-28T19:33:32.708Z,51.81
2019-04-28T19:36:03.208Z,55.03
2019-04-28T19:38:34.595Z,54.32
2019-04-28T19:41:05.525Z,52.78
2019-04-28T19:43:44.297Z,55.12
2019-04-28T19:46:16.421Z,55.81
2019-04-28T19:48:49.782Z,53.23
2019-04-28T19:51:31.106Z,55.13
2019-04-28T19:53:52.364Z,55.69
2019-04-28T19:56:40.515Z,53.99
2019-04-28T19:59:18.719Z,54.08
2019-04-28T20:01:49.403Z,56.46
2019-04-28T20:04:19.780Z,56.73
2019-04-28T20:06:50.106Z,57.39
2019-04-28T20:09:20.503Z,58.94
2019-04-28T20:11:50.924Z,58.77
2019-04-28T20:14:21.229Z,58.82
2019-04-28T20:16:51.782Z,58.01
2019-04-28T20:19:22.333Z,61.15
2019-04-28T20:21:52.926Z,60.20
2019-04-28T20:24:23.397Z,59.74
2019-04-28T20:26:53.900Z,60.54
2019-04-28T20:29:24.354Z,61.25
2019-04-28T20:31:54.798Z,61.78
2019-04-28T20:34:25.201Z,61.12
2019-04-28T20:37:01.261Z,61.28
2019-04-28T20:39:32.920Z,61.67
2019-04-28T20:42:21.125Z,62.01
2019-04-28T20:44:51.609Z,61.59
2019-04-28T20:47:21.982Z,61.30
2019-04-28T20:49:52.416Z,62.59
2019-04-28T20:52:22.817Z,63.01
2019-04-28T20:54:53.293Z,63.83
2019-04-28T20:57:23.742Z,65.12
2019-04-28T20:59:54.311Z,64.81
2019-04-28T21:02:24.809Z,64.33
2019-04-28T21:04:55.238Z,64.37
2019-04-28T21:07:28.254Z,66.03
2019-04-28T21:09:58.648Z,65.10
2019-04-28T21:12:29.104Z,65.07
2019-04-28T21:14:59.469Z,65.04
2019-04-28T21:17:29.972Z,66.42
2019-04-28T21:20:00.303Z,64.74
2019-04-28T21:22:30.768Z,64.92
2019-04-28T21:25:01.355Z,65.10
2019-04-28T21:27:31.834Z,65.39
2019-04-28T21:30:02.309Z,65.41
2019-04-28T21:32:32.858Z,65.75
2019-04-28T21:35:04.660Z,64.94
2019-04-28T21:37:35.097Z,63.89
2019-04-28T21:40:05.796Z,64.36
2019-04-28T21:43:01.137Z,63.81
2019-04-28T21:45:50.829Z,66.11
2019-04-28T21:48:39.385Z,65.33
2019-04-28T21:51:11.839Z,64.35
2019-04-28T21:53:42.159Z,65.42
2019-04-28T21:56:12.549Z,64.15
2019-04-28T21:58:42.993Z,63.56
2019-04-28T22:01:18.289Z,64.33
2019-04-28T22:03:49.020Z,64.16
2019-04-28T22:06:19.462Z,64.49
2019-04-28T22:08:49.948Z,65.11
2019-04-28T22:11:20.405Z,65.02
2019-04-28T22:13:50.823Z,65.44
2019-04-28T22:16:21.255Z,65.41
2019-04-28T22:18:51.794Z,66.06
2019-04-28T22:21:22.137Z,65.74
2019-04-28T22:24:16.329Z,65.79
2019-04-28T22:26:48.331Z,65.44
2019-04-28T22:29:18.762Z,65.04
2019-04-28T22:31:49.235Z,65.53
2019-04-28T22:34:19.682Z,66.12
2019-04-28T22:36:50.110Z,66.83
2019-04-28T22:39:20.564Z,65.07
2019-04-28T22:41:51.016Z,66.50
2019-04-28T22:44:21.505Z,67.90
2019-04-28T22:46:51.968Z,67.21
2019-04-28T22:49:22.322Z,66.35
2019-04-28T22:51:52.794Z,66.82
2019-04-28T22:54:39.234Z,67.29
2019-04-28T22:57:21.809Z,68.03
2019-04-28T22:59:52.371Z,68.46
2019-04-28T23:02:22.942Z,67.92
2019-04-28T23:05:11.663Z,68.02
2019-04-28T23:07:42.175Z,68.22
2019-04-28T23:10:12.773Z,67.08
2019-04-28T23:12:43.279Z,66.71
2019-04-28T23:15:14.077Z,66.79
2019-04-28T23:17:44.590Z,66.09
2019-04-28T23:20:15.521Z,66.17
2019-04-28T23:22:48.894Z,66.26
2019-04-28T23:25:19.430Z,67.14
2019-04-28T23:27:49.836Z,66.48
2019-04-28T23:30:44.523Z,66.68
2019-04-28T23:33:14.885Z,66.04
2019-04-28T23:35:45.275Z,66.28
2019-04-28T23:38:15.753Z,66.80
2019-04-28T23:40:57.297Z,68.60
2019-04-28T23:43:36.558Z,68.92
2019-04-28T23:46:07.020Z,68.98
2019-04-28T23:48:37.366Z,69.89
2019-04-28T23:51:15.386Z,69.95
2019-04-28T23:54:03.628Z,70.79
2019-04-28T23:56:34.023Z,70.85
2019-04-28T23:59:04.485Z,71.36
